createdAt,value
2018-08-08T00:00:44.366Z,89.97
2018-08-08T00:03:48.652Z,89.87
2018-08-08T00:06:53.014Z,89.69
2018-08-08T00:09:57.653Z,89.09
2018-08-08T00:13:01.942Z,89.39
2018-08-08T00:16:06.627Z,89.40
2018-08-08T00:19:10.944Z,89.54
2018-08-08T00:22:15.285Z,89.08
2018-08-08T00:25:19.799Z,88.96
2018-08-08T00:28:24.578Z,88.88
2018-08-08T00:31:28.976Z,89.00
2018-08-08T00:34:33.249Z,89.27
2018-08-08T00:37:38.049Z,89.59
2018-08-08T00:40:42.652Z,89.33
2018-08-08T00:43:46.989Z,89.26
2018-08-08T00:46:51.394Z,89.48
2018-08-08T00:49:55.889Z,89.19
2018-08-08T00:53:00.212Z,89.03
2018-08-08T00:56:04.948Z,88.93
2018-08-08T00:59:09.233Z,88.99
2018-08-08T01:02:13.655Z,88.88
2018-08-08T01:05:18.301Z,89.65
2018-08-08T01:08:22.729Z,89.46
2018-08-08T01:11:28.069Z,89.12
2018-08-08T01:14:32.365Z,89.63
2018-08-08T01:17:37.103Z,89.04
2018-08-08T01:20:41.677Z,89.54
2018-08-08T01:23:46.247Z,89.79
2018-08-08T01:26:50.563Z,90.21
2018-08-08T01:29:55.176Z,89.81
2018-08-08T01:32:59.774Z,89.83
2018-08-08T01:36:04.101Z,89.83
2018-08-08T01:39:10.282Z,89.70
2018-08-08T01:42:14.595Z,89.58
2018-08-08T01:45:19.145Z,89.65
2018-08-08T01:48:23.828Z,89.66
2018-08-08T01:51:28.531Z,89.64
2018-08-08T01:54:32.886Z,90.04
2018-08-08T01:57:37.414Z,90.08
2018-08-08T02:00:55.808Z,89.75
2018-08-08T02:04:01.240Z,89.14
2018-08-08T02:07:05.722Z,89.44
2018-08-08T02:10:15.221Z,88.94
2018-08-08T02:13:19.518Z,88.85
2018-08-08T02:16:23.917Z,89.20
2018-08-08T02:19:28.249Z,89.09
2018-08-08T02:22:32.538Z,89.05
2018-08-08T02:25:36.893Z,89.00
2018-08-08T02:28:41.205Z,88.57
2018-08-08T02:31:45.531Z,88.28
2018-08-08T02:34:49.849Z,88.32
2018-08-08T02:37:54.138Z,88.20
2018-08-08T02:40:58.418Z,88.16
2018-08-08T02:44:02.733Z,88.12
2018-08-08T02:47:07.049Z,87.94
2018-08-08T02:50:13.774Z,88.09
2018-08-08T02:53:18.103Z,87.71
2018-08-08T02:56:22.368Z,87.69
2018-08-08T02:59:26.645Z,88.20
2018-08-08T03:02:31.008Z,88.32
2018-08-08T03:05:35.513Z,88.09
2018-08-08T03:08:40.425Z,88.45
2018-08-08T03:11:45.314Z,88.13
2018-08-08T03:14:49.632Z,87.95
2018-08-08T03:17:53.886Z,88.19
2018-08-08T03:20:58.941Z,88.09
2018-08-08T03:24:03.231Z,88.22
2018-08-08T03:27:07.721Z,88.58
2018-08-08T03:30:19.703Z,88.56
2018-08-08T03:33:24.025Z,87.65
2018-08-08T03:36:28.603Z,87.34
2018-08-08T03:39:33.070Z,87.22
2018-08-08T03:42:37.430Z,87.38
2018-08-08T03:45:41.732Z,87.79
2018-08-08T03:48:46.294Z,87.46
2018-08-08T03:51:51.029Z,87.81
2018-08-08T03:54:56.854Z,87.99
2018-08-08T03:58:01.229Z,87.39
2018-08-08T04:01:05.753Z,87.08
2018-08-08T04:04:10.176Z,86.98
2018-08-08T04:07:14.575Z,87.29
2018-08-08T04:10:19.896Z,87.15
2018-08-08T04:13:24.297Z,86.74
2018-08-08T04:16:29.125Z,87.49
2018-08-08T04:19:33.467Z,87.50
2018-08-08T04:22:38.290Z,86.55
2018-08-08T04:25:42.591Z,86.88
2018-08-08T04:28:47.193Z,85.93
2018-08-08T04:31:51.629Z,85.49
2018-08-08T04:34:57.025Z,86.81
2018-08-08T04:38:01.486Z,86.04
2018-08-08T04:41:05.988Z,85.70
2018-08-08T04:44:19.603Z,85.06
2018-08-08T04:47:24.169Z,87.58
2018-08-08T04:50:28.592Z,89.03
2018-08-08T04:53:32.933Z,87.53
2018-08-08T04:56:37.355Z,86.61
2018-08-08T04:59:41.949Z,87.32
2018-08-08T05:02:46.867Z,85.39
2018-08-08T05:05:51.229Z,83.96
2018-08-08T05:09:02.265Z,83.28
2018-08-08T05:12:30.069Z,84.47
2018-08-08T05:15:34.765Z,83.43
2018-08-08T05:18:39.217Z,81.90
2018-08-08T05:21:43.774Z,81.49
2018-08-08T05:24:48.154Z,80.85
2018-08-08T05:27:52.465Z,80.71
2018-08-08T05:30:57.077Z,80.64
2018-08-08T05:34:01.529Z,82.37
2018-08-08T05:37:06.249Z,81.40
2018-08-08T05:40:21.026Z,80.84
2018-08-08T05:43:25.920Z,80.77
2018-08-08T05:46:30.283Z,80.17
2018-08-08T05:49:34.610Z,79.65
2018-08-08T05:52:39.205Z,79.11
2018-08-08T05:55:43.842Z,78.65
2018-08-08T05:58:48.182Z,77.33
2018-08-08T06:01:52.535Z,75.57
2018-08-08T06:04:58.859Z,76.34
2018-08-08T06:08:03.622Z,71.00
2018-08-08T06:11:08.677Z,68.27
2018-08-08T06:14:13.014Z,62.47
2018-08-08T06:17:17.302Z,60.56
2018-08-08T06:20:23.585Z,59.48
2018-08-08T06:23:28.007Z,61.15
2018-08-08T06:26:32.475Z,62.28
2018-08-08T06:29:36.898Z,59.02
2018-08-08T06:32:41.583Z,60.37
2018-08-08T06:35:46.025Z,61.67
2018-08-08T06:38:50.391Z,58.95
2018-08-08T06:41:54.772Z,60.97
2018-08-08T06:44:59.093Z,59.66
2018-08-08T06:48:03.569Z,57.07
2018-08-08T06:51:07.971Z,52.46
2018-08-08T06:54:12.410Z,53.04
2018-08-08T06:57:16.744Z,51.41
2018-08-08T07:00:24.707Z,50.24
2018-08-08T07:03:29.044Z,50.48
2018-08-08T07:06:33.364Z,48.98
2018-08-08T07:09:37.861Z,48.34
2018-08-08T07:12:42.207Z,46.16
2018-08-08T07:15:46.471Z,47.56
2018-08-08T07:18:50.836Z,46.90
2018-08-08T07:21:55.294Z,47.29
2018-08-08T07:24:59.969Z,46.71
2018-08-08T07:28:04.644Z,46.86
2018-08-08T07:31:09.038Z,48.11
2018-08-08T07:34:13.392Z,48.05
2018-08-08T07:37:17.765Z,48.81
2018-08-08T07:40:22.888Z,48.04
2018-08-08T07:43:27.313Z,48.80
2018-08-08T07:46:31.774Z,48.86
2018-08-08T07:49:36.245Z,48.55
2018-08-08T07:52:40.803Z,50.46
2018-08-08T07:55:45.669Z,49.65
2018-08-08T07:58:50.093Z,49.13
2018-08-08T08:01:54.558Z,47.94
2018-08-08T08:04:59.389Z,49.15
2018-08-08T08:08:03.829Z,48.09
2018-08-08T08:11:08.250Z,49.02
2018-08-08T08:14:12.569Z,50.66
2018-08-08T08:17:16.929Z,50.29
2018-08-08T08:20:21.240Z,48.91
2018-08-08T08:23:25.741Z,47.82
2018-08-08T08:26:30.042Z,49.02
2018-08-08T08:29:34.560Z,48.89
2018-08-08T08:32:39.209Z,48.78
2018-08-08T08:35:43.672Z,48.43
2018-08-08T08:38:48.344Z,48.07
2018-08-08T08:41:52.653Z,49.11
2018-08-08T08:44:59.262Z,49.51
2018-08-08T08:48:03.680Z,49.91
2018-08-08T08:51:08.390Z,51.15
2018-08-08T08:54:12.801Z,50.57
2018-08-08T08:57:17.581Z,50.54
2018-08-08T09:00:21.960Z,49.89
2018-08-08T09:03:26.361Z,50.19
2018-08-08T09:06:30.715Z,51.61
2018-08-08T09:09:35.073Z,51.35
2018-08-08T09:12:41.090Z,50.42
2018-08-08T09:15:45.425Z,51.77
2018-08-08T09:18:49.789Z,52.93
2018-08-08T09:21:54.712Z,52.48
2018-08-08T09:24:59.017Z,51.10
2018-08-08T09:28:03.322Z,51.56
2018-08-08T09:31:07.935Z,52.76
2018-08-08T09:34:12.237Z,52.32
2018-08-08T09:37:16.964Z,52.41
2018-08-08T09:40:21.294Z,52.04
2018-08-08T09:43:25.805Z,52.37
2018-08-08T09:46:30.127Z,54.57
2018-08-08T09:49:34.572Z,52.69
2018-08-08T09:52:39.192Z,52.94
2018-08-08T09:55:43.674Z,52.11
2018-08-08T09:58:48.178Z,52.30
2018-08-08T10:01:57.863Z,52.18
2018-08-08T10:05:02.205Z,53.08
2018-08-08T10:08:06.581Z,54.40
2018-08-08T10:11:10.865Z,51.74
2018-08-08T10:14:15.157Z,52.96
2018-08-08T10:17:19.981Z,53.63
2018-08-08T10:20:24.298Z,52.88
2018-08-08T10:23:28.777Z,52.96
2018-08-08T10:26:33.287Z,53.11
2018-08-08T10:29:37.626Z,51.21
2018-08-08T10:32:42.005Z,50.27
2018-08-08T10:35:46.389Z,49.82
2018-08-08T10:38:50.957Z,50.92
2018-08-08T10:41:55.622Z,48.83
2018-08-08T10:45:00.080Z,50.03
2018-08-08T10:48:04.597Z,48.13
2018-08-08T10:51:08.905Z,46.63
2018-08-08T10:54:14.015Z,47.83
2018-08-08T10:57:18.705Z,46.65
2018-08-08T11:00:23.061Z,46.66
2018-08-08T11:03:27.706Z,45.89
2018-08-08T11:06:32.166Z,46.71
2018-08-08T11:09:36.568Z,46.21
2018-08-08T11:12:41.009Z,46.13
2018-08-08T11:15:45.306Z,47.91
2018-08-08T11:18:50.079Z,47.22
2018-08-08T11:21:54.965Z,47.09
2018-08-08T11:24:59.603Z,46.02
2018-08-08T11:28:04.142Z,45.71
2018-08-08T11:31:08.766Z,45.61
2018-08-08T11:34:13.357Z,46.66
2018-08-08T11:37:17.687Z,45.67
2018-08-08T11:40:22.407Z,44.62
2018-08-08T11:43:26.809Z,45.81
2018-08-08T11:46:31.206Z,43.40
2018-08-08T11:49:35.581Z,43.38
2018-08-08T11:52:39.933Z,43.56
2018-08-08T11:55:44.249Z,44.77
2018-08-08T11:58:48.531Z,41.42
2018-08-08T12:01:53.156Z,42.20
2018-08-08T12:04:57.548Z,40.57
2018-08-08T12:08:02.179Z,39.91
2018-08-08T12:11:07.097Z,38.80
2018-08-08T12:14:12.033Z,42.23
2018-08-08T12:17:16.700Z,39.80
2018-08-08T12:20:21.792Z,40.97
2018-08-08T12:23:26.688Z,39.91
2018-08-08T12:26:32.902Z,40.01
2018-08-08T12:29:37.298Z,40.11
2018-08-08T12:32:42.028Z,40.03
2018-08-08T12:35:46.577Z,41.41
2018-08-08T12:38:50.906Z,41.14
2018-08-08T12:41:55.385Z,40.42
2018-08-08T12:44:59.820Z,41.39
2018-08-08T12:48:04.172Z,39.43
2018-08-08T12:51:08.525Z,39.05
2018-08-08T12:54:12.749Z,39.84
2018-08-08T12:57:17.040Z,39.84
2018-08-08T13:00:21.765Z,38.48
2018-08-08T13:03:26.240Z,39.83
2018-08-08T13:06:30.533Z,40.79
2018-08-08T13:09:35.298Z,40.84
2018-08-08T13:12:39.622Z,40.67
2018-08-08T13:15:43.993Z,39.50
2018-08-08T13:18:48.475Z,39.95
2018-08-08T13:21:53.179Z,38.58
2018-08-08T13:24:57.799Z,39.31
2018-08-08T13:28:02.562Z,39.69
2018-08-08T13:31:06.899Z,39.08
2018-08-08T13:34:11.198Z,39.64
2018-08-08T13:37:16.839Z,38.64
2018-08-08T13:40:21.684Z,38.72
2018-08-08T13:43:26.247Z,39.21
2018-08-08T13:46:30.741Z,39.44
2018-08-08T13:49:35.407Z,40.34
2018-08-08T13:52:39.903Z,41.08
2018-08-08T13:55:44.418Z,39.29
2018-08-08T13:58:48.861Z,40.13
2018-08-08T14:01:53.607Z,39.17
2018-08-08T14:04:58.070Z,39.86
2018-08-08T14:08:02.441Z,39.68
2018-08-08T14:11:06.729Z,38.89
2018-08-08T14:14:11.145Z,39.70
2018-08-08T14:17:16.080Z,38.79
2018-08-08T14:20:20.535Z,39.62
2018-08-08T14:23:24.990Z,38.69
2018-08-08T14:26:29.344Z,39.70
2018-08-08T14:29:33.961Z,39.85
2018-08-08T14:32:38.264Z,38.74
2018-08-08T14:35:42.959Z,38.34
2018-08-08T14:38:48.657Z,36.71
2018-08-08T14:41:53.089Z,36.97
2018-08-08T14:44:57.513Z,36.65
2018-08-08T14:48:02.029Z,39.27
2018-08-08T14:51:06.404Z,38.98
2018-08-08T14:54:10.941Z,39.86
2018-08-08T14:57:15.505Z,39.83
2018-08-08T15:00:19.862Z,39.35
2018-08-08T15:03:24.157Z,39.54
2018-08-08T15:06:28.797Z,39.25
2018-08-08T15:09:34.130Z,38.83
2018-08-08T15:12:38.733Z,38.44
2018-08-08T15:15:43.216Z,38.50
2018-08-08T15:18:48.296Z,38.01
2018-08-08T15:21:52.963Z,37.98
2018-08-08T15:24:57.268Z,38.54
2018-08-08T15:28:02.620Z,38.15
2018-08-08T15:31:07.643Z,36.94
2018-08-08T15:34:12.093Z,36.08
2018-08-08T15:37:17.208Z,37.42
2018-08-08T15:40:21.693Z,37.46
2018-08-08T15:43:26.601Z,35.81
2018-08-08T15:46:31.769Z,35.83
2018-08-08T15:49:36.364Z,36.13
2018-08-08T15:52:41.936Z,37.90
2018-08-08T15:55:46.981Z,36.00
2018-08-08T15:58:52.024Z,36.46
2018-08-08T16:01:57.720Z,37.61
2018-08-08T16:05:02.444Z,37.10
2018-08-08T16:08:07.441Z,36.97
2018-08-08T16:11:12.696Z,37.36
2018-08-08T16:14:21.590Z,37.32
2018-08-08T16:17:29.016Z,37.57
2018-08-08T16:20:39.643Z,37.57
2018-08-08T16:23:44.842Z,37.35
2018-08-08T16:26:49.853Z,36.90
2018-08-08T16:29:54.381Z,36.67
2018-08-08T16:33:02.960Z,36.96
2018-08-08T16:36:07.667Z,37.00
2018-08-08T16:39:12.962Z,36.55
2018-08-08T16:42:17.730Z,35.72
2018-08-08T16:45:22.374Z,35.94
2018-08-08T16:48:26.942Z,35.84
2018-08-08T16:51:31.725Z,35.58
2018-08-08T16:54:36.286Z,35.50
2018-08-08T16:57:40.725Z,36.38
2018-08-08T17:00:45.509Z,36.46
2018-08-08T17:03:50.455Z,37.40
2018-08-08T17:06:54.970Z,34.90
2018-08-08T17:10:00.655Z,33.15
2018-08-08T17:13:05.619Z,33.09
2018-08-08T17:16:10.397Z,35.19
2018-08-08T17:19:14.956Z,36.86
2018-08-08T17:22:19.693Z,37.71
2018-08-08T17:25:24.007Z,37.13
2018-08-08T17:28:28.578Z,37.56
2018-08-08T17:31:32.863Z,37.66
2018-08-08T17:34:37.570Z,38.39
2018-08-08T17:37:41.921Z,39.00
2018-08-08T17:40:46.593Z,39.48
2018-08-08T17:43:51.587Z,40.04
2018-08-08T17:46:55.703Z,39.99
2018-08-08T17:50:00.269Z,40.71
2018-08-08T17:53:04.725Z,40.19
2018-08-08T17:56:09.249Z,40.70
2018-08-08T17:59:13.823Z,41.48
2018-08-08T18:02:18.647Z,40.81
2018-08-08T18:05:23.470Z,41.50
2018-08-08T18:08:28.692Z,41.76
2018-08-08T18:11:33.227Z,42.01
2018-08-08T18:14:37.832Z,41.65
2018-08-08T18:17:42.290Z,42.04
2018-08-08T18:20:46.619Z,42.02
2018-08-08T18:23:51.445Z,42.32
2018-08-08T18:26:56.425Z,42.34
2018-08-08T18:30:01.092Z,44.94
2018-08-08T18:33:06.042Z,45.57
2018-08-08T18:36:10.969Z,46.29
2018-08-08T18:39:15.914Z,46.76
2018-08-08T18:42:20.325Z,47.47
2018-08-08T18:45:24.924Z,48.71
2018-08-08T18:48:29.535Z,49.69
2018-08-08T18:51:34.529Z,51.69
2018-08-08T18:54:39.064Z,54.00
2018-08-08T18:57:43.584Z,55.74
2018-08-08T19:00:48.413Z,55.66
2018-08-08T19:03:53.056Z,57.24
2018-08-08T19:06:57.966Z,57.07
2018-08-08T19:10:03.049Z,56.60
2018-08-08T19:13:07.775Z,57.18
2018-08-08T19:16:12.839Z,56.93
2018-08-08T19:19:17.558Z,57.40
2018-08-08T19:22:22.672Z,57.70
2018-08-08T19:25:27.598Z,58.44
2018-08-08T19:28:32.322Z,58.17
2018-08-08T19:31:37.172Z,58.59
2018-08-08T19:34:41.842Z,58.92
2018-08-08T19:37:47.170Z,59.80
2018-08-08T19:40:51.723Z,59.61
2018-08-08T19:43:56.513Z,59.81
2018-08-08T19:47:01.156Z,59.73
2018-08-08T19:50:06.210Z,59.76
2018-08-08T19:53:10.869Z,59.55
2018-08-08T19:56:17.659Z,59.68
2018-08-08T19:59:22.477Z,60.30
2018-08-08T20:02:27.722Z,59.86
2018-08-08T20:05:32.391Z,59.01
2018-08-08T20:08:36.947Z,59.47
2018-08-08T20:11:41.924Z,59.09
2018-08-08T20:14:46.640Z,60.24
2018-08-08T20:17:51.112Z,60.30
2018-08-08T20:20:56.568Z,60.67
2018-08-08T20:24:00.885Z,60.83
2018-08-08T20:27:05.812Z,60.65
2018-08-08T20:30:10.749Z,60.98
2018-08-08T20:33:15.333Z,61.61
2018-08-08T20:36:19.833Z,62.51
2018-08-08T20:39:24.442Z,62.84
2018-08-08T20:42:28.818Z,63.39
2018-08-08T20:45:33.377Z,63.99
2018-08-08T20:48:38.117Z,63.30
2018-08-08T20:51:42.688Z,63.52
2018-08-08T20:54:48.253Z,64.05
2018-08-08T20:57:52.617Z,64.65
2018-08-08T21:00:57.219Z,64.34
2018-08-08T21:04:02.009Z,63.84
2018-08-08T21:07:06.335Z,64.73
2018-08-08T21:10:10.608Z,64.36
2018-08-08T21:13:15.044Z,64.65
2018-08-08T21:16:19.889Z,64.82
2018-08-08T21:19:24.346Z,64.75
2018-08-08T21:22:29.331Z,64.47
2018-08-08T21:25:33.750Z,64.40
2018-08-08T21:28:38.093Z,65.07
2018-08-08T21:31:42.390Z,65.19
2018-08-08T21:34:47.569Z,64.98
2018-08-08T21:37:52.042Z,64.41
2018-08-08T21:40:56.525Z,65.35
2018-08-08T21:44:00.936Z,65.88
2018-08-08T21:47:05.394Z,65.15
2018-08-08T21:50:09.798Z,65.35
2018-08-08T21:53:17.696Z,66.59
2018-08-08T21:56:39.373Z,66.36
2018-08-08T22:00:00.665Z,65.97
2018-08-08T22:03:22.177Z,66.31
2018-08-08T22:06:43.819Z,66.81
2018-08-08T22:10:05.189Z,66.31
2018-08-08T22:13:26.658Z,65.46
2018-08-08T22:17:45.523Z,66.32
2018-08-08T22:20:49.926Z,66.54
2018-08-08T22:23:54.380Z,66.89
2018-08-08T22:26:59.086Z,66.60
2018-08-08T22:30:03.422Z,66.73
2018-08-08T22:33:07.772Z,66.35
2018-08-08T22:36:12.849Z,65.45
2018-08-08T22:39:18.301Z,65.45
2018-08-08T22:42:22.591Z,65.66
2018-08-08T22:45:27.242Z,66.00
2018-08-08T22:48:31.880Z,66.22
2018-08-08T22:51:36.217Z,66.34
2018-08-08T22:54:40.756Z,67.05
2018-08-08T22:57:45.039Z,67.05
2018-08-08T23:00:49.551Z,66.56
2018-08-08T23:03:54.530Z,67.03
2018-08-08T23:06:58.825Z,66.83
2018-08-08T23:10:03.357Z,67.09
2018-08-08T23:13:07.685Z,67.13
2018-08-08T23:16:12.581Z,68.40
2018-08-08T23:19:16.888Z,68.89
2018-08-08T23:22:38.195Z,69.24
2018-08-08T23:25:43.044Z,69.89
2018-08-08T23:28:47.410Z,69.94
2018-08-08T23:31:51.734Z,71.02
2018-08-08T23:34:56.050Z,70.76
2018-08-08T23:38:00.389Z,71.23
2018-08-08T23:41:04.797Z,71.39
2018-08-08T23:44:09.787Z,71.77
2018-08-08T23:47:14.075Z,72.25
2018-08-08T23:50:18.410Z,72.77
2018-08-08T23:53:22.837Z,73.11
2018-08-08T23:56:27.426Z,72.82
2018-08-08T23:59:31.833Z,73.44
